Time;durP1;ratioP1;P1;durP2;ratioP2;P2;SDS_P1;SDS_P2;PMS_P1;PMS_P2;Temp;Humidity;BMP_temperature;BMP_pressure;BME280_temperature;BME280_humidity;BME280_pressure;Samples;Min_cycle;Max_cycle;Signal;HPM_P1;HPM_P2
2023/03/14 00:00:17;;;;;;;24.50;14.25;;;;;;;;;;4998547;28;20050;-81
2023/03/14 00:03:02;;;;;;;28.27;14.50;;;;;;;;;;5013782;28;20403;-81
2023/03/14 00:05:47;;;;;;;92.80;38.53;;;;;;;;;;5013175;28;20042;-81
2023/03/14 00:08:34;;;;;;;91.72;39.00;;;;;;;;;;5005422;28;20049;-81
2023/03/14 00:11:20;;;;;;;83.80;35.90;;;;;;;;;;5012397;28;20038;-81
2023/03/14 00:14:06;;;;;;;81.85;33.17;;;;;;;;;;5013264;28;20046;-81
2023/03/14 00:16:52;;;;;;;86.50;35.22;;;;;;;;;;5013499;28;20041;-81
2023/03/14 00:19:37;;;;;;;68.47;27.02;;;;;;;;;;4998348;28;20042;-81
2023/03/14 00:22:22;;;;;;;49.80;22.88;;;;;;;;;;5005181;28;20483;-81
2023/03/14 00:25:09;;;;;;;43.55;19.60;;;;;;;;;;5013012;28;20050;-82
2023/03/14 00:27:55;;;;;;;34.13;14.98;;;;;;;;;;5013349;28;20054;-81
2023/03/14 00:30:40;;;;;;;34.75;15.85;;;;;;;;;;4999622;28;20050;-81
2023/03/14 00:33:27;;;;;;;33.47;15.70;;;;;;;;;;5008001;28;20420;-81
2023/03/14 00:36:14;;;;;;;37.40;13.10;;;;;;;;;;5008243;28;20042;-81
2023/03/14 00:38:59;;;;;;;38.40;16.58;;;;;;;;;;5008398;28;20050;-81
2023/03/14 00:41:45;;;;;;;33.70;15.65;;;;;;;;;;5016797;28;20046;-82
2023/03/14 00:44:31;;;;;;;37.85;17.38;;;;;;;;;;5016626;28;20403;-81
2023/03/14 00:47:16;;;;;;;37.30;16.45;;;;;;;;;;5007896;28;20054;-81
2023/03/14 00:50:02;;;;;;;39.92;16.95;;;;;;;;;;5016307;28;20045;-82
2023/03/14 00:52:48;;;;;;;38.38;17.02;;;;;;;;;;5008486;28;20053;-81
2023/03/14 00:55:42;;;;;;;30.15;15.23;;;;;;;;;;5008494;28;20045;-81
2023/03/14 00:58:28;;;;;;;42.05;19.88;;;;;;;;;;5001934;28;20053;-81
2023/03/14 01:01:16;;;;;;;50.30;21.83;;;;;;;;;;5008014;28;20050;-81
2023/03/14 01:04:02;;;;;;;54.40;23.67;;;;;;;;;;5001024;28;20054;-81
2023/03/14 01:06:47;;;;;;;57.10;22.80;;;;;;;;;;4993341;28;20050;-83
2023/03/14 01:09:33;;;;;;;51.45;23.75;;;;;;;;;;5006843;28;20053;-80
2023/03/14 01:12:17;;;;;;;61.00;25.23;;;;;;;;;;5015104;28;20046;-81
2023/03/14 01:15:03;;;;;;;55.13;23.20;;;;;;;;;;5014311;28;20490;-81
2023/03/14 01:17:49;;;;;;;46.25;21.83;;;;;;;;;;5006878;28;20041;-81
2023/03/14 01:20:36;;;;;;;43.47;18.52;;;;;;;;;;4993427;28;20062;-81
2023/03/14 01:23:21;;;;;;;33.97;14.77;;;;;;;;;;4992715;28;20045;-81
2023/03/14 01:26:18;;;;;;;48.03;20.38;;;;;;;;;;5006444;28;20475;-81
2023/03/14 01:29:04;;;;;;;40.83;17.80;;;;;;;;;;5014792;28;20053;-80
2023/03/14 01:31:51;;;;;;;40.90;17.95;;;;;;;;;;5006495;28;20041;-80
2023/03/14 01:34:37;;;;;;;39.60;18.50;;;;;;;;;;4993308;28;20041;-81
2023/03/14 01:37:23;;;;;;;45.47;19.92;;;;;;;;;;5014378;28;20475;-81
2023/03/14 01:40:11;;;;;;;38.78;16.85;;;;;;;;;;4999681;28;20037;-80
2023/03/14 01:42:58;;;;;;;41.90;19.08;;;;;;;;;;5004756;28;20045;-80
2023/03/14 01:46:06;;;;;;;39.30;17.75;;;;;;;;;;4993197;28;20053;-80
2023/03/14 01:49:14;;;;;;;36.95;17.50;;;;;;;;;;5006772;28;20045;-81
2023/03/14 01:52:13;;;;;;;38.25;17.50;;;;;;;;;;4993335;28;20061;-81
2023/03/14 01:55:05;;;;;;;40.00;15.88;;;;;;;;;;5014875;28;20049;-82
2023/03/14 01:57:58;;;;;;;35.10;14.35;;;;;;;;;;5006100;28;20046;-81
2023/03/14 02:00:44;;;;;;;33.13;14.40;;;;;;;;;;5006154;28;20046;-81
2023/03/14 02:03:34;;;;;;;28.45;12.60;;;;;;;;;;5006051;28;20041;-81
2023/03/14 02:17:01;;;;;;;39.63;16.30;;;;;;;;;;5129346;27;1315018;-79
2023/03/14 02:20:28;;;;;;;41.95;16.73;;;;;;;;;;5143897;27;20054;-79
2023/03/14 02:23:40;;;;;;;45.35;18.38;;;;;;;;;;5144063;27;20050;-82
2023/03/14 02:26:44;;;;;;;41.85;17.80;;;;;;;;;;5133568;27;20043;-83
2023/03/14 02:29:31;;;;;;;46.50;19.63;;;;;;;;;;5129086;27;20035;-82
2023/03/14 02:32:20;;;;;;;42.15;16.25;;;;;;;;;;5143380;27;20039;-79
2023/03/14 02:35:11;;;;;;;28.75;11.75;;;;;;;;;;5143632;27;20050;-82
2023/03/14 02:38:03;;;;;;;24.30;10.60;;;;;;;;;;5143519;27;20484;-80
2023/03/14 02:40:53;;;;;;;29.67;11.23;;;;;;;;;;5129628;27;20480;-82
2023/03/14 02:43:39;;;;;;;26.25;9.27;;;;;;;;;;5143525;27;20039;-82
2023/03/14 02:46:29;;;;;;;24.85;10.43;;;;;;;;;;5143138;27;20396;-82
2023/03/14 02:49:14;;;;;;;29.40;11.48;;;;;;;;;;5128779;27;20039;-78
2023/03/14 02:51:59;;;;;;;27.08;13.13;;;;;;;;;;5152231;27;20039;-78
2023/03/14 02:54:45;;;;;;;43.95;18.88;;;;;;;;;;5151065;27;20050;-81
2023/03/14 02:57:30;;;;;;;37.75;18.35;;;;;;;;;;5143421;27;20039;-78
2023/03/14 03:00:16;;;;;;;45.70;22.67;;;;;;;;;;5143064;27;20403;-81
2023/03/14 03:03:01;;;;;;;52.15;25.15;;;;;;;;;;5143005;27;20043;-78
2023/03/14 03:05:51;;;;;;;64.55;29.38;;;;;;;;;;5128510;27;20496;-82
2023/03/14 03:08:37;;;;;;;57.88;26.45;;;;;;;;;;5143080;27;20400;-78
2023/03/14 03:11:22;;;;;;;17.13;7.18;;;;;;;;;;5151590;27;20480;-83
2023/03/14 03:14:08;;;;;;;95.68;40.17;;;;;;;;;;5142950;27;20042;-82
2023/03/14 03:16:53;;;;;;;142.85;63.45;;;;;;;;;;5127897;27;20043;-78
2023/03/14 03:19:40;;;;;;;68.10;34.78;;;;;;;;;;5129297;27;20035;-78
2023/03/14 03:22:26;;;;;;;77.15;36.20;;;;;;;;;;5137106;27;20051;-78
2023/03/14 03:25:12;;;;;;;52.70;26.52;;;;;;;;;;5136951;27;20046;-82
2023/03/14 03:27:57;;;;;;;50.63;20.08;;;;;;;;;;5122008;27;20039;-78
2023/03/14 03:30:43;;;;;;;33.58;14.32;;;;;;;;;;5128758;27;20388;-82
2023/03/14 03:33:28;;;;;;;29.05;12.43;;;;;;;;;;5137358;27;20047;-81
2023/03/14 03:36:13;;;;;;;63.72;24.40;;;;;;;;;;5113958;27;20035;-82
2023/03/14 03:38:59;;;;;;;56.63;20.52;;;;;;;;;;5128670;27;20069;-83
2023/03/14 03:41:45;;;;;;;46.00;15.85;;;;;;;;;;5137457;27;20051;-82
2023/03/14 03:44:30;;;;;;;53.83;23.10;;;;;;;;;;5130748;27;20488;-78
2023/03/14 03:47:16;;;;;;;33.13;15.07;;;;;;;;;;5114822;27;20039;-79
2023/03/14 03:50:02;;;;;;;33.33;13.93;;;;;;;;;;5137562;27;20047;-78
2023/03/14 03:52:47;;;;;;;24.92;12.18;;;;;;;;;;5115090;27;20472;-78
2023/03/14 03:55:33;;;;;;;23.33;10.10;;;;;;;;;;5140195;27;20043;-82
2023/03/14 03:58:19;;;;;;;18.67;8.55;;;;;;;;;;5130752;27;20039;-82
2023/03/14 04:01:06;;;;;;;19.35;9.95;;;;;;;;;;5123407;27;20039;-79
2023/03/14 04:03:52;;;;;;;21.05;9.70;;;;;;;;;;5126576;27;20043;-79
2023/03/14 04:06:38;;;;;;;21.27;10.45;;;;;;;;;;5111503;27;20043;-79
2023/03/14 04:09:23;;;;;;;25.40;11.75;;;;;;;;;;5112236;27;20484;-83
2023/03/14 04:12:25;;;;;;;26.42;11.93;;;;;;;;;;5127157;27;20043;-83
2023/03/14 04:15:18;;;;;;;31.15;14.07;;;;;;;;;;5125338;27;20047;-79
2023/03/14 04:18:06;;;;;;;29.73;15.13;;;;;;;;;;5126966;27;20477;-79
2023/03/14 04:20:53;;;;;;;32.47;14.52;;;;;;;;;;5127512;27;20054;-79
2023/03/14 04:23:40;;;;;;;30.92;14.30;;;;;;;;;;5128038;27;20039;-79
2023/03/14 04:26:25;;;;;;;27.33;13.35;;;;;;;;;;5135675;27;20047;-82
2023/03/14 04:29:11;;;;;;;31.65;13.73;;;;;;;;;;5127171;27;20419;-83
2023/03/14 04:31:56;;;;;;;24.65;12.98;;;;;;;;;;5120787;27;20043;-79
2023/03/14 04:34:42;;;;;;;24.52;11.05;;;;;;;;;;5128149;27;20051;-82
2023/03/14 04:37:27;;;;;;;34.95;12.75;;;;;;;;;;5127657;27;20396;-79
2023/03/14 04:40:13;;;;;;;22.42;10.43;;;;;;;;;;5128083;27;20388;-79
2023/03/14 04:42:58;;;;;;;21.25;10.60;;;;;;;;;;5127667;27;20047;-83
2023/03/14 04:45:44;;;;;;;48.38;16.27;;;;;;;;;;5127692;27;20043;-79
2023/03/14 04:48:30;;;;;;;40.88;14.80;;;;;;;;;;5127100;27;20043;-79
2023/03/14 04:51:16;;;;;;;31.60;12.32;;;;;;;;;;5127083;27;20035;-83
2023/03/14 04:54:02;;;;;;;36.50;15.60;;;;;;;;;;5127049;27;20040;-83
2023/03/14 04:56:48;;;;;;;44.97;14.45;;;;;;;;;;5126961;27;20047;-79
2023/03/14 04:59:33;;;;;;;25.92;12.10;;;;;;;;;;5135698;27;20039;-83
2023/03/14 05:02:29;;;;;;;29.08;13.32;;;;;;;;;;5127041;27;20039;-83
2023/03/14 05:05:29;;;;;;;25.23;12.60;;;;;;;;;;5114301;27;20043;-79
2023/03/14 05:08:53;;;;;;;37.17;18.85;;;;;;;;;;5071869;28;20048;-79
2023/03/14 05:11:52;;;;;;;87.20;37.38;;;;;;;;;;5064291;28;20060;-83
2023/03/14 05:14:51;;;;;;;137.48;51.58;;;;;;;;;;5126809;27;20043;-79
2023/03/14 05:18:00;;;;;;;111.65;42.13;;;;;;;;;;5134921;27;20047;-79
2023/03/14 05:21:07;;;;;;;81.47;33.35;;;;;;;;;;5141568;27;20472;-82
2023/03/14 05:24:07;;;;;;;82.63;34.78;;;;;;;;;;5114023;27;20500;-83
2023/03/14 05:27:11;;;;;;;52.95;25.15;;;;;;;;;;5134480;27;20043;-82
2023/03/14 05:30:08;;;;;;;45.13;21.40;;;;;;;;;;5126608;27;20051;-82
2023/03/14 05:33:16;;;;;;;35.28;17.40;;;;;;;;;;5133071;27;20050;-79
2023/03/14 05:36:02;;;;;;;53.95;22.38;;;;;;;;;;5134532;27;20408;-82
2023/03/14 05:39:07;;;;;;;59.35;23.50;;;;;;;;;;5134739;27;20035;-83
2023/03/14 05:42:10;;;;;;;62.20;26.15;;;;;;;;;;5134556;27;20039;-78
2023/03/14 05:45:18;;;;;;;67.60;28.45;;;;;;;;;;5132615;27;20039;-82
2023/03/14 05:48:21;;;;;;;64.35;27.15;;;;;;;;;;5134345;27;20039;-78
2023/03/14 05:51:22;;;;;;;77.82;37.83;;;;;;;;;;5121684;27;20043;-82
2023/03/14 05:54:25;;;;;;;91.43;37.10;;;;;;;;;;5133522;27;20043;-79
2023/03/14 05:57:30;;;;;;;89.13;35.40;;;;;;;;;;5116620;27;20051;-79
2023/03/14 06:00:32;;;;;;;64.60;28.55;;;;;;;;;;5126226;27;20051;-83
2023/03/14 06:03:34;;;;;;;44.78;22.33;;;;;;;;;;5114225;27;20043;-79
2023/03/14 06:06:20;;;;;;;64.75;28.85;;;;;;;;;;5134610;28;20039;-83
2023/03/14 06:09:06;;;;;;;92.50;35.45;;;;;;;;;;5125996;27;20051;-79
2023/03/14 06:11:53;;;;;;;73.20;28.02;;;;;;;;;;5125355;27;20488;-84
2023/03/14 06:14:39;;;;;;;59.75;24.95;;;;;;;;;;5125913;27;20047;-79
2023/03/14 06:17:25;;;;;;;87.85;31.05;;;;;;;;;;5118500;28;20051;-83
2023/03/14 06:20:18;;;;;;;65.57;29.30;;;;;;;;;;5126435;27;20047;-84
2023/03/14 06:23:03;;;;;;;61.05;27.80;;;;;;;;;;5126557;27;20130;-84
2023/03/14 06:25:51;;;;;;;54.30;25.77;;;;;;;;;;5111305;27;20047;-83
2023/03/14 06:28:35;;;;;;;55.28;27.88;;;;;;;;;;5110371;27;20039;-83
2023/03/14 06:31:22;;;;;;;75.50;33.83;;;;;;;;;;5125388;27;20038;-80
2023/03/14 06:34:14;;;;;;;77.43;35.92;;;;;;;;;;5125703;27;20039;-83
2023/03/14 06:36:59;;;;;;;65.10;33.38;;;;;;;;;;5111544;27;20043;-83
2023/03/14 06:39:45;;;;;;;27.55;12.60;;;;;;;;;;5124164;27;20039;-80
2023/03/14 06:42:39;;;;;;;14.20;6.40;;;;;;;;;;5126015;27;20035;-84
2023/03/14 06:45:25;;;;;;;14.98;7.63;;;;;;;;;;5111687;27;20039;-83
2023/03/14 06:48:12;;;;;;;18.77;10.60;;;;;;;;;;5125995;27;20043;-79
2023/03/14 06:51:05;;;;;;;11.43;5.95;;;;;;;;;;5124880;27;20035;-83
2023/03/14 06:53:50;;;;;;;14.10;5.45;;;;;;;;;;5128656;27;20043;-83
2023/03/14 07:03:51;;;;;;;18.48;5.95;;;;;;;;;;5030887;28;20045;-80
2023/03/14 07:06:39;;;;;;;11.20;5.55;;;;;;;;;;5039336;28;20049;-81
2023/03/14 07:09:24;;;;;;;14.48;5.40;;;;;;;;;;5042532;28;20045;-78
2023/03/14 07:12:15;;;;;;;8.25;4.50;;;;;;;;;;5041763;28;20053;-81
2023/03/14 07:15:00;;;;;;;11.45;5.93;;;;;;;;;;5046812;28;20409;-81
2023/03/14 07:17:47;;;;;;;6.28;3.63;;;;;;;;;;5040921;28;20037;-80
2023/03/14 07:20:33;;;;;;;11.48;6.53;;;;;;;;;;5041087;28;20041;-80
2023/03/14 07:23:19;;;;;;;14.90;7.60;;;;;;;;;;5039789;28;20049;-79
2023/03/14 07:26:07;;;;;;;14.90;5.38;;;;;;;;;;5038141;28;20053;-84
2023/03/14 07:28:54;;;;;;;18.48;8.00;;;;;;;;;;5042215;28;20053;-79
2023/03/14 07:31:41;;;;;;;38.67;14.13;;;;;;;;;;5040168;28;20041;-79
2023/03/14 07:34:29;;;;;;;13.15;6.10;;;;;;;;;;5040192;28;20053;-81
2023/03/14 07:37:14;;;;;;;17.85;8.38;;;;;;;;;;5039184;28;20053;-80
2023/03/14 07:39:59;;;;;;;19.08;6.10;;;;;;;;;;5048731;28;20044;-80
2023/03/14 07:42:49;;;;;;;8.52;5.53;;;;;;;;;;5039163;28;20041;-80
2023/03/14 07:45:46;;;;;;;14.55;6.55;;;;;;;;;;5040035;28;20040;-80
2023/03/14 07:48:32;;;;;;;7.72;4.45;;;;;;;;;;5047985;28;20049;-80
2023/03/14 07:51:17;;;;;;;14.30;6.43;;;;;;;;;;5048860;28;20045;-80
2023/03/14 07:54:02;;;;;;;12.15;5.50;;;;;;;;;;5048016;28;20037;-81
2023/03/14 07:56:47;;;;;;;11.00;5.00;;;;;;;;;;5047699;28;20052;-80
2023/03/14 07:59:33;;;;;;;11.88;4.75;;;;;;;;;;5039419;28;20045;-80
2023/03/14 08:02:22;;;;;;;15.43;8.45;;;;;;;;;;5042179;28;20052;-81
2023/03/14 08:05:08;;;;;;;10.45;4.53;;;;;;;;;;5058700;28;20040;-81
2023/03/14 08:07:53;;;;;;;11.25;5.72;;;;;;;;;;5058161;28;20036;-80
2023/03/14 08:10:38;;;;;;;11.52;5.35;;;;;;;;;;5059189;28;20053;-80
2023/03/14 08:13:25;;;;;;;18.52;5.35;;;;;;;;;;5059195;28;20053;-80
2023/03/14 08:16:10;;;;;;;8.07;4.43;;;;;;;;;;5058051;28;20411;-80
2023/03/14 08:18:57;;;;;;;9.93;4.20;;;;;;;;;;5058897;28;20051;-81
2023/03/14 08:21:42;;;;;;;7.82;4.13;;;;;;;;;;5059527;28;20048;-80
2023/03/14 08:24:27;;;;;;;9.35;4.63;;;;;;;;;;5058199;28;20049;-80
2023/03/14 08:27:14;;;;;;;8.68;5.15;;;;;;;;;;5058568;28;20041;-81
2023/03/14 08:29:59;;;;;;;12.55;6.57;;;;;;;;;;5056708;28;20044;-82
2023/03/14 08:32:44;;;;;;;11.30;5.18;;;;;;;;;;5058358;28;20049;-81
2023/03/14 08:35:29;;;;;;;13.85;5.97;;;;;;;;;;5058695;28;20041;-81
2023/03/14 08:38:14;;;;;;;15.50;8.38;;;;;;;;;;5058409;28;20044;-80
2023/03/14 08:41:01;;;;;;;19.45;7.53;;;;;;;;;;5050222;28;20044;-81
2023/03/14 08:43:46;;;;;;;9.65;5.82;;;;;;;;;;5059154;28;20048;-81
2023/03/14 08:46:32;;;;;;;9.15;5.55;;;;;;;;;;5058328;28;20053;-80
2023/03/14 08:49:17;;;;;;;13.65;5.85;;;;;;;;;;5058072;28;20444;-80
2023/03/14 08:52:04;;;;;;;8.40;4.18;;;;;;;;;;5058463;28;20049;-79
2023/03/14 08:54:48;;;;;;;7.30;4.13;;;;;;;;;;5058114;28;20044;-80
2023/03/14 08:57:33;;;;;;;11.45;5.13;;;;;;;;;;5058430;28;20036;-80
2023/03/14 09:00:19;;;;;;;15.23;6.95;;;;;;;;;;5058407;28;20040;-80
2023/03/14 09:03:04;;;;;;;13.13;6.35;;;;;;;;;;5049648;28;20052;-80
2023/03/14 09:05:50;;;;;;;12.32;6.53;;;;;;;;;;5048836;28;20041;-81
2023/03/14 09:08:36;;;;;;;14.65;7.00;;;;;;;;;;5058295;28;20040;-81
2023/03/14 09:11:21;;;;;;;13.73;7.22;;;;;;;;;;5057926;28;20060;-81
2023/03/14 09:14:07;;;;;;;27.73;13.70;;;;;;;;;;5057477;28;20040;-81
2023/03/14 09:16:52;;;;;;;11.45;5.55;;;;;;;;;;5057660;28;20044;-80
2023/03/14 09:19:38;;;;;;;9.48;5.13;;;;;;;;;;5055866;28;20041;-80
2023/03/14 09:22:24;;;;;;;11.52;5.90;;;;;;;;;;5058404;28;20041;-80
2023/03/14 09:25:10;;;;;;;15.13;6.15;;;;;;;;;;5061632;28;20045;-81
2023/03/14 09:27:55;;;;;;;11.23;6.30;;;;;;;;;;5055421;28;20044;-81
2023/03/14 09:30:40;;;;;;;12.07;6.43;;;;;;;;;;5056314;28;20053;-80
2023/03/14 09:33:26;;;;;;;11.38;6.88;;;;;;;;;;5056471;28;20049;-81
2023/03/14 09:36:11;;;;;;;39.28;20.40;;;;;;;;;;5053889;28;20053;-80
2023/03/14 09:38:57;;;;;;;12.77;6.28;;;;;;;;;;5055372;28;20048;-80
2023/03/14 09:41:46;;;;;;;14.10;7.65;;;;;;;;;;5054485;28;20044;-80
2023/03/14 09:44:39;;;;;;;12.48;6.68;;;;;;;;;;5044346;28;20045;-79
2023/03/14 09:47:26;;;;;;;14.30;6.25;;;;;;;;;;5042262;28;20044;-79
2023/03/14 09:50:15;;;;;;;7.05;4.18;;;;;;;;;;5053662;28;20040;-81
2023/03/14 09:53:06;;;;;;;11.40;5.50;;;;;;;;;;5054632;28;20041;-80
2023/03/14 09:55:55;;;;;;;13.43;5.70;;;;;;;;;;5055321;28;20060;-80
2023/03/14 09:58:43;;;;;;;9.65;3.95;;;;;;;;;;5054135;28;20496;-80
2023/03/14 10:01:33;;;;;;;14.55;7.32;;;;;;;;;;5052764;28;20053;-79
2023/03/14 10:04:23;;;;;;;13.52;6.45;;;;;;;;;;5049079;28;20053;-80
2023/03/14 10:07:14;;;;;;;11.73;5.22;;;;;;;;;;5057385;28;20524;-79
2023/03/14 10:10:00;;;;;;;15.60;5.70;;;;;;;;;;5057089;28;20045;-78
2023/03/14 10:12:47;;;;;;;14.73;8.18;;;;;;;;;;5056481;28;20053;-80
2023/03/14 10:15:34;;;;;;;9.15;5.05;;;;;;;;;;5056704;28;20037;-78
2023/03/14 10:18:20;;;;;;;10.32;5.93;;;;;;;;;;5056875;28;20508;-80
2023/03/14 10:21:30;;;;;;;10.68;5.57;;;;;;;;;;5056994;28;20041;-82
2023/03/14 10:24:24;;;;;;;8.50;4.28;;;;;;;;;;5057156;28;20049;-80
2023/03/14 10:27:20;;;;;;;10.43;4.82;;;;;;;;;;5058703;28;20045;-81
2023/03/14 10:30:20;;;;;;;10.90;5.15;;;;;;;;;;5059173;28;20412;-80
2023/03/14 10:33:19;;;;;;;14.95;5.63;;;;;;;;;;5061250;28;20388;-81
2023/03/14 10:36:14;;;;;;;9.85;4.63;;;;;;;;;;5060519;28;20040;-81
2023/03/14 10:39:23;;;;;;;11.63;5.20;;;;;;;;;;5058109;28;20041;-80
2023/03/14 10:42:23;;;;;;;7.82;3.92;;;;;;;;;;5051722;28;20416;-81
2023/03/14 10:45:27;;;;;;;10.63;5.75;;;;;;;;;;5051296;28;20036;-81
2023/03/14 10:48:23;;;;;;;10.45;4.38;;;;;;;;;;5058211;28;20481;-81
2023/03/14 10:51:24;;;;;;;7.18;3.65;;;;;;;;;;5060229;28;20445;-83
2023/03/14 10:54:21;;;;;;;9.43;3.70;;;;;;;;;;5059238;28;20053;-81
2023/03/14 10:57:07;;;;;;;11.20;3.97;;;;;;;;;;5060502;28;20052;-82
2023/03/14 10:59:54;;;;;;;10.63;4.43;;;;;;;;;;5060306;28;20456;-81
2023/03/14 11:03:12;;;;;;;8.40;3.90;;;;;;;;;;5060210;28;20049;-83
2023/03/14 11:06:01;;;;;;;11.75;4.70;;;;;;;;;;5054511;28;20048;-81
2023/03/14 11:09:05;;;;;;;7.88;4.45;;;;;;;;;;5051295;28;20041;-81
2023/03/14 11:11:50;;;;;;;7.57;4.53;;;;;;;;;;5058062;28;20053;-81
2023/03/14 11:14:40;;;;;;;10.07;4.88;;;;;;;;;;5060499;28;20041;-81
2023/03/14 11:18:04;;;;;;;9.52;3.75;;;;;;;;;;5051422;28;20045;-81
2023/03/14 11:20:52;;;;;;;9.23;3.97;;;;;;;;;;5037246;28;20056;-81
2023/03/14 11:23:53;;;;;;;8.65;4.22;;;;;;;;;;5060328;28;20049;-80
2023/03/14 11:27:05;;;;;;;8.15;4.07;;;;;;;;;;5059532;28;20048;-81
2023/03/14 11:29:50;;;;;;;8.35;4.00;;;;;;;;;;5060240;28;20044;-80
2023/03/14 11:32:44;;;;;;;6.25;3.78;;;;;;;;;;5059188;28;20492;-80
2023/03/14 11:35:59;;;;;;;9.02;3.83;;;;;;;;;;5060037;28;20045;-79
2023/03/14 11:38:50;;;;;;;8.55;4.95;;;;;;;;;;5065731;28;20053;-81
2023/03/14 11:41:53;;;;;;;7.70;3.65;;;;;;;;;;5057724;28;20430;-81
2023/03/14 11:44:40;;;;;;;12.02;4.93;;;;;;;;;;5043921;28;20045;-81
2023/03/14 11:47:34;;;;;;;17.92;8.32;;;;;;;;;;5059402;28;20033;-80
2023/03/14 11:50:25;;;;;;;10.40;3.38;;;;;;;;;;5059613;28;20040;-82
2023/03/14 11:53:17;;;;;;;11.75;5.40;;;;;;;;;;5059801;28;20049;-78
2023/03/14 11:56:03;;;;;;;14.27;4.13;;;;;;;;;;5059312;28;20044;-79
2023/03/14 11:58:59;;;;;;;9.63;3.95;;;;;;;;;;5051239;28;20049;-81
2023/03/14 12:02:00;;;;;;;6.28;3.28;;;;;;;;;;5058726;28;20040;-81
2023/03/14 12:04:48;;;;;;;12.38;4.75;;;;;;;;;;5059203;28;20409;-81
2023/03/14 12:08:00;;;;;;;5.75;3.83;;;;;;;;;;5059328;28;20041;-80
2023/03/14 12:10:51;;;;;;;7.95;4.05;;;;;;;;;;5059614;28;20481;-80
2023/03/14 12:13:38;;;;;;;8.13;5.10;;;;;;;;;;5059633;28;20036;-80
2023/03/14 12:16:23;;;;;;;11.82;4.90;;;;;;;;;;5058898;28;20044;-80
2023/03/14 12:19:20;;;;;;;9.50;4.30;;;;;;;;;;5056408;28;20049;-81
2023/03/14 12:22:29;;;;;;;11.60;4.60;;;;;;;;;;5058878;28;20036;-81
2023/03/14 12:25:19;;;;;;;7.28;3.72;;;;;;;;;;5062572;28;20401;-80
2023/03/14 12:28:31;;;;;;;8.82;5.43;;;;;;;;;;5058903;28;20041;-80
2023/03/14 12:31:28;;;;;;;8.98;4.22;;;;;;;;;;5066180;28;20036;-80
2023/03/14 12:34:13;;;;;;;10.88;5.43;;;;;;;;;;5059137;28;20484;-80
2023/03/14 12:37:10;;;;;;;7.68;4.07;;;;;;;;;;5060627;28;20052;-81
2023/03/14 12:39:58;;;;;;;8.40;4.20;;;;;;;;;;5061209;28;20481;-81
2023/03/14 12:43:00;;;;;;;9.85;4.65;;;;;;;;;;5059776;28;20037;-81
2023/03/14 12:46:17;;;;;;;11.23;4.53;;;;;;;;;;5051820;28;20049;-80
2023/03/14 12:49:01;;;;;;;10.35;4.38;;;;;;;;;;5049804;28;20041;-80
2023/03/14 12:51:46;;;;;;;8.90;5.00;;;;;;;;;;5059258;28;20044;-81
2023/03/14 12:54:31;;;;;;;8.10;3.28;;;;;;;;;;5055076;28;20484;-80
2023/03/14 12:57:42;;;;;;;10.93;4.20;;;;;;;;;;5059658;28;20060;-80
2023/03/14 13:00:33;;;;;;;8.50;4.22;;;;;;;;;;5044287;28;20040;-81
2023/03/14 13:03:24;;;;;;;12.30;4.40;;;;;;;;;;5058739;28;20044;-80
2023/03/14 13:06:11;;;;;;;9.55;3.85;;;;;;;;;;5059658;28;20048;-81
2023/03/14 13:08:57;;;;;;;8.00;4.30;;;;;;;;;;5058518;28;20049;-81
2023/03/14 13:11:43;;;;;;;8.95;3.92;;;;;;;;;;5058826;28;20037;-81
2023/03/14 13:14:29;;;;;;;6.03;3.42;;;;;;;;;;5059726;28;20049;-80
2023/03/14 13:17:26;;;;;;;13.02;4.68;;;;;;;;;;5058731;28;20516;-81
2023/03/14 13:20:21;;;;;;;11.20;4.70;;;;;;;;;;5059391;28;20049;-81
2023/03/14 13:23:19;;;;;;;15.18;4.63;;;;;;;;;;5059072;28;20045;-81
2023/03/14 13:26:14;;;;;;;8.07;4.95;;;;;;;;;;5059871;28;20049;-81
2023/03/14 13:28:59;;;;;;;7.53;3.80;;;;;;;;;;5060045;28;20044;-81
2023/03/14 13:31:52;;;;;;;7.50;3.65;;;;;;;;;;5059213;28;20553;-81
2023/03/14 13:34:38;;;;;;;7.97;4.13;;;;;;;;;;5058969;28;20052;-82
2023/03/14 13:37:28;;;;;;;9.75;3.80;;;;;;;;;;5048699;28;20045;-80
2023/03/14 13:40:20;;;;;;;6.43;3.55;;;;;;;;;;5058909;28;20492;-80
2023/03/14 13:43:16;;;;;;;12.68;4.65;;;;;;;;;;5057708;28;20045;-80
2023/03/14 13:46:16;;;;;;;12.85;4.72;;;;;;;;;;5058450;28;20048;-78
2023/03/14 13:49:05;;;;;;;12.32;5.10;;;;;;;;;;5057360;28;20056;-78
2023/03/14 13:51:51;;;;;;;9.60;4.68;;;;;;;;;;5056799;28;20139;-78
2023/03/14 13:54:42;;;;;;;9.63;4.05;;;;;;;;;;5058565;28;20041;-77
2023/03/14 13:57:27;;;;;;;8.93;4.45;;;;;;;;;;5058254;28;20401;-78
2023/03/14 14:00:27;;;;;;;10.63;4.80;;;;;;;;;;5057964;28;20045;-79
2023/03/14 14:03:13;;;;;;;7.10;3.90;;;;;;;;;;5058888;28;20477;-79
2023/03/14 14:05:58;;;;;;;12.13;4.30;;;;;;;;;;5057872;28;20037;-78
2023/03/14 14:08:49;;;;;;;11.35;4.32;;;;;;;;;;5058584;28;20045;-77
2023/03/14 14:11:58;;;;;;;7.90;4.00;;;;;;;;;;5058582;28;20048;-79
2023/03/14 14:15:06;;;;;;;12.07;4.25;;;;;;;;;;5064355;28;20053;-79
2023/03/14 14:18:00;;;;;;;8.73;3.78;;;;;;;;;;5059034;28;20032;-78
2023/03/14 14:20:47;;;;;;;9.68;3.97;;;;;;;;;;5058461;28;20401;-77
2023/03/14 14:23:38;;;;;;;14.95;5.00;;;;;;;;;;5057943;28;20496;-78
2023/03/14 14:26:29;;;;;;;16.70;5.85;;;;;;;;;;5058606;28;20041;-78
2023/03/14 14:29:27;;;;;;;8.25;3.13;;;;;;;;;;5056808;28;20056;-77
2023/03/14 14:32:14;;;;;;;12.48;5.10;;;;;;;;;;5058355;28;20649;-80
2023/03/14 14:35:00;;;;;;;10.15;5.47;;;;;;;;;;5058493;28;20060;-77
2023/03/14 14:37:48;;;;;;;17.38;5.65;;;;;;;;;;5049493;28;20040;-79
2023/03/14 14:40:46;;;;;;;14.70;5.20;;;;;;;;;;5060986;28;20037;-79
2023/03/14 14:43:36;;;;;;;22.23;9.27;;;;;;;;;;5061227;28;20485;-80
2023/03/14 14:46:22;;;;;;;17.35;9.18;;;;;;;;;;5058828;28;20044;-81
2023/03/14 14:49:19;;;;;;;86.10;58.72;;;;;;;;;;5051770;28;20444;-79
2023/03/14 14:52:12;;;;;;;203.30;97.10;;;;;;;;;;5058948;28;20065;-83
2023/03/14 14:55:02;;;;;;;136.60;67.03;;;;;;;;;;5057400;28;20045;-82
2023/03/14 14:57:56;;;;;;;97.80;53.10;;;;;;;;;;5058149;28;20485;-78
2023/03/14 15:00:52;;;;;;;85.35;51.17;;;;;;;;;;5057163;28;20048;-79
2023/03/14 15:03:37;;;;;;;62.42;39.42;;;;;;;;;;5056287;28;20049;-79
2023/03/14 15:06:27;;;;;;;30.65;18.35;;;;;;;;;;5057981;28;20048;-79
2023/03/14 15:09:12;;;;;;;20.25;8.32;;;;;;;;;;5056998;28;20037;-80
2023/03/14 15:11:58;;;;;;;13.68;7.63;;;;;;;;;;5057438;28;20033;-80
2023/03/14 15:14:48;;;;;;;69.53;31.40;;;;;;;;;;5060522;28;20040;-79
2023/03/14 15:17:33;;;;;;;48.55;22.20;;;;;;;;;;5061294;28;20392;-80
2023/03/14 15:20:24;;;;;;;60.58;33.20;;;;;;;;;;5061504;28;20053;-80
2023/03/14 15:23:11;;;;;;;16.23;8.70;;;;;;;;;;5060685;28;20044;-80
2023/03/14 15:25:58;;;;;;;87.90;31.33;;;;;;;;;;5061005;28;20040;-80
2023/03/14 15:28:46;;;;;;;19.95;10.82;;;;;;;;;;5061166;28;20045;-80
2023/03/14 15:31:31;;;;;;;98.97;42.40;;;;;;;;;;5060554;28;20392;-80
2023/03/14 15:34:17;;;;;;;118.53;40.38;;;;;;;;;;5060908;28;20053;-80
2023/03/14 15:37:06;;;;;;;47.20;22.38;;;;;;;;;;5060970;28;20048;-79
2023/03/14 15:39:53;;;;;;;128.52;45.85;;;;;;;;;;5060894;28;20041;-81
2023/03/14 15:42:38;;;;;;;52.75;25.15;;;;;;;;;;5053248;28;20040;-78
2023/03/14 15:45:23;;;;;;;109.28;35.78;;;;;;;;;;5060184;28;20040;-79
2023/03/14 15:48:21;;;;;;;20.90;10.75;;;;;;;;;;5061082;28;20041;-79
2023/03/14 15:51:11;;;;;;;47.78;19.42;;;;;;;;;;5060402;28;20409;-80
2023/03/14 15:53:57;;;;;;;20.33;8.77;;;;;;;;;;5061114;28;20401;-81
2023/03/14 15:56:42;;;;;;;267.48;88.07;;;;;;;;;;5058827;28;20045;-80
2023/03/14 15:59:28;;;;;;;50.38;19.98;;;;;;;;;;5059890;28;20397;-80
2023/03/14 16:02:13;;;;;;;28.25;12.60;;;;;;;;;;5051625;28;20057;-79
2023/03/14 16:05:04;;;;;;;37.22;16.50;;;;;;;;;;5059374;28;20064;-80
2023/03/14 16:07:49;;;;;;;53.17;24.77;;;;;;;;;;5057199;28;20049;-80
2023/03/14 16:10:35;;;;;;;52.67;25.45;;;;;;;;;;5049672;28;20411;-80
2023/03/14 16:13:20;;;;;;;23.08;12.60;;;;;;;;;;5054171;28;20045;-80
2023/03/14 16:16:12;;;;;;;70.80;42.97;;;;;;;;;;5057502;28;20041;-79
2023/03/14 16:19:04;;;;;;;21.30;14.27;;;;;;;;;;5053058;28;20496;-78
2023/03/14 16:21:49;;;;;;;24.67;17.75;;;;;;;;;;5059663;28;20052;-80
2023/03/14 16:24:41;;;;;;;12.68;8.00;;;;;;;;;;5058116;28;20049;-78
2023/03/14 16:27:26;;;;;;;9.13;5.43;;;;;;;;;;5056640;28;20044;-79
2023/03/14 16:30:13;;;;;;;6.95;4.38;;;;;;;;;;5058839;28;20053;-78
2023/03/14 16:33:00;;;;;;;10.63;5.88;;;;;;;;;;5059462;28;20044;-78
2023/03/14 16:36:00;;;;;;;8.90;5.68;;;;;;;;;;5059312;28;20401;-80
2023/03/14 16:38:50;;;;;;;5.83;3.87;;;;;;;;;;5056657;28;20048;-80
2023/03/14 16:41:36;;;;;;;9.20;5.75;;;;;;;;;;5049381;28;20040;-80
2023/03/14 16:44:22;;;;;;;10.25;4.50;;;;;;;;;;5050770;28;20036;-84
2023/03/14 16:47:08;;;;;;;6.95;5.03;;;;;;;;;;5042865;28;20053;-83
2023/03/14 16:49:54;;;;;;;9.15;5.80;;;;;;;;;;5042338;28;20041;-84
2023/03/14 16:52:46;;;;;;;13.65;5.95;;;;;;;;;;5041302;28;20045;-81
2023/03/14 16:55:31;;;;;;;13.30;6.50;;;;;;;;;;5040171;28;20397;-83
2023/03/14 16:58:19;;;;;;;16.33;7.18;;;;;;;;;;5040726;28;20152;-80